sensor_id;sensor_type;location;lat;lon;timestamp;P1;durP1;ratioP1;P2;durP2;ratioP2
60454;SDS011;54989;53.398;6.564;2022-10-31T00:00:56;3.05;;;2.85;;
60454;SDS011;54989;53.398;6.564;2022-10-31T00:03:24;3.25;;;2.85;;
60454;SDS011;54989;53.398;6.564;2022-10-31T00:05:52;2.50;;;2.30;;
60454;SDS011;54989;53.398;6.564;2022-10-31T00:08:20;3.45;;;2.95;;
60454;SDS011;54989;53.398;6.564;2022-10-31T00:10:47;2.97;;;2.67;;
60454;SDS011;54989;53.398;6.564;2022-10-31T00:13:15;3.33;;;2.97;;
60454;SDS011;54989;53.398;6.564;2022-10-31T00:15:42;3.83;;;3.00;;
60454;SDS011;54989;53.398;6.564;2022-10-31T00:18:10;2.78;;;2.42;;
60454;SDS011;54989;53.398;6.564;2022-10-31T00:20:37;2.67;;;2.47;;
60454;SDS011;54989;53.398;6.564;2022-10-31T00:23:06;2.70;;;2.50;;
60454;SDS011;54989;53.398;6.564;2022-10-31T00:25:34;2.55;;;2.35;;
60454;SDS011;54989;53.398;6.564;2022-10-31T00:28:05;3.00;;;2.70;;
60454;SDS011;54989;53.398;6.564;2022-10-31T00:30:34;2.67;;;2.47;;
60454;SDS011;54989;53.398;6.564;2022-10-31T00:33:02;2.75;;;2.55;;
60454;SDS011;54989;53.398;6.564;2022-10-31T00:35:31;2.58;;;2.38;;
60454;SDS011;54989;53.398;6.564;2022-10-31T00:38:00;3.33;;;2.70;;
60454;SDS011;54989;53.398;6.564;2022-10-31T00:40:27;2.83;;;2.60;;
60454;SDS011;54989;53.398;6.564;2022-10-31T00:42:55;2.85;;;2.40;;
60454;SDS011;54989;53.398;6.564;2022-10-31T00:45:23;2.75;;;2.28;;
60454;SDS011;54989;53.398;6.564;2022-10-31T00:47:50;2.92;;;2.05;;
60454;SDS011;54989;53.398;6.564;2022-10-31T00:50:18;3.20;;;2.45;;
60454;SDS011;54989;53.398;6.564;2022-10-31T00:52:45;2.53;;;2.30;;
60454;SDS011;54989;53.398;6.564;2022-10-31T00:55:13;4.22;;;2.13;;
60454;SDS011;54989;53.398;6.564;2022-10-31T00:57:40;2.60;;;2.40;;
60454;SDS011;54989;53.398;6.564;2022-10-31T01:00:09;2.13;;;1.98;;
60454;SDS011;54989;53.398;6.564;2022-10-31T01:02:37;2.30;;;2.10;;
60454;SDS011;54989;53.398;6.564;2022-10-31T01:05:05;2.50;;;2.30;;
60454;SDS011;54989;53.398;6.564;2022-10-31T01:07:36;2.75;;;2.38;;
60454;SDS011;54989;53.398;6.564;2022-10-31T01:10:07;2.70;;;2.33;;
60454;SDS011;54989;53.398;6.564;2022-10-31T01:12:40;4.28;;;2.33;;
60454;SDS011;54989;53.398;6.564;2022-10-31T01:15:10;2.42;;;2.08;;
60454;SDS011;54989;53.398;6.564;2022-10-31T01:17:40;3.30;;;2.63;;
60454;SDS011;54989;53.398;6.564;2022-10-31T01:20:10;2.40;;;2.17;;
60454;SDS011;54989;53.398;6.564;2022-10-31T01:22:40;2.87;;;2.57;;
60454;SDS011;54989;53.398;6.564;2022-10-31T01:25:08;2.00;;;1.90;;
60454;SDS011;54989;53.398;6.564;2022-10-31T01:27:38;2.53;;;2.33;;
60454;SDS011;54989;53.398;6.564;2022-10-31T01:30:06;4.22;;;2.38;;
60454;SDS011;54989;53.398;6.564;2022-10-31T01:32:34;2.50;;;2.30;;
60454;SDS011;54989;53.398;6.564;2022-10-31T01:35:02;2.60;;;2.40;;
60454;SDS011;54989;53.398;6.564;2022-10-31T01:37:30;2.83;;;2.40;;
60454;SDS011;54989;53.398;6.564;2022-10-31T01:39:58;3.15;;;2.28;;
60454;SDS011;54989;53.398;6.564;2022-10-31T01:42:25;2.92;;;2.28;;
60454;SDS011;54989;53.398;6.564;2022-10-31T01:47:27;2.47;;;2.10;;
60454;SDS011;54989;53.398;6.564;2022-10-31T01:50:00;2.30;;;2.10;;
60454;SDS011;54989;53.398;6.564;2022-10-31T01:52:33;2.53;;;2.20;;
60454;SDS011;54989;53.398;6.564;2022-10-31T01:55:06;2.28;;;2.10;;
60454;SDS011;54989;53.398;6.564;2022-10-31T01:57:44;2.47;;;2.20;;
60454;SDS011;54989;53.398;6.564;2022-10-31T02:00:16;2.00;;;1.90;;
60454;SDS011;54989;53.398;6.564;2022-10-31T02:02:45;2.92;;;2.30;;
60454;SDS011;54989;53.398;6.564;2022-10-31T02:05:16;2.47;;;2.28;;
60454;SDS011;54989;53.398;6.564;2022-10-31T02:07:57;2.80;;;2.40;;
60454;SDS011;54989;53.398;6.564;2022-10-31T02:10:31;3.13;;;2.00;;
60454;SDS011;54989;53.398;6.564;2022-10-31T02:13:02;2.88;;;2.00;;
60454;SDS011;54989;53.398;6.564;2022-10-31T02:15:35;2.50;;;2.03;;
60454;SDS011;54989;53.398;6.564;2022-10-31T02:18:04;2.70;;;2.50;;
60454;SDS011;54989;53.398;6.564;2022-10-31T02:20:37;2.17;;;2.00;;
60454;SDS011;54989;53.398;6.564;2022-10-31T02:37:52;2.28;;;2.10;;
60454;SDS011;54989;53.398;6.564;2022-10-31T02:40:45;1.95;;;1.85;;
60454;SDS011;54989;53.398;6.564;2022-10-31T02:44:00;2.20;;;2.00;;
60454;SDS011;54989;53.398;6.564;2022-10-31T02:49:54;2.13;;;1.92;;
60454;SDS011;54989;53.398;6.564;2022-10-31T02:52:49;2.05;;;1.92;;
60454;SDS011;54989;53.398;6.564;2022-10-31T02:58:00;1.67;;;1.58;;
60454;SDS011;54989;53.398;6.564;2022-10-31T03:01:03;2.20;;;1.75;;
60454;SDS011;54989;53.398;6.564;2022-10-31T03:09:25;2.15;;;1.95;;
60454;SDS011;54989;53.398;6.564;2022-10-31T03:17:20;1.90;;;1.80;;
60454;SDS011;54989;53.398;6.564;2022-10-31T03:19:53;1.90;;;1.80;;
60454;SDS011;54989;53.398;6.564;2022-10-31T03:22:26;1.77;;;1.67;;
60454;SDS011;54989;53.398;6.564;2022-10-31T03:24:58;1.98;;;1.75;;
60454;SDS011;54989;53.398;6.564;2022-10-31T03:27:29;1.90;;;1.80;;
60454;SDS011;54989;53.398;6.564;2022-10-31T03:30:02;2.38;;;1.92;;
60454;SDS011;54989;53.398;6.564;2022-10-31T03:32:58;2.17;;;1.77;;
60454;SDS011;54989;53.398;6.564;2022-10-31T03:35:29;2.20;;;1.95;;
60454;SDS011;54989;53.398;6.564;2022-10-31T03:38:02;1.98;;;1.70;;
60454;SDS011;54989;53.398;6.564;2022-10-31T03:40:33;2.33;;;2.13;;
60454;SDS011;54989;53.398;6.564;2022-10-31T03:45:36;1.83;;;1.73;;
60454;SDS011;54989;53.398;6.564;2022-10-31T03:48:08;2.20;;;2.00;;
60454;SDS011;54989;53.398;6.564;2022-10-31T03:50:38;1.92;;;1.73;;
60454;SDS011;54989;53.398;6.564;2022-10-31T03:53:20;1.83;;;1.73;;
60454;SDS011;54989;53.398;6.564;2022-10-31T03:58:26;1.90;;;1.70;;
60454;SDS011;54989;53.398;6.564;2022-10-31T04:00:56;1.75;;;1.65;;
60454;SDS011;54989;53.398;6.564;2022-10-31T04:03:27;2.10;;;1.90;;
60454;SDS011;54989;53.398;6.564;2022-10-31T04:06:00;2.95;;;1.90;;
60454;SDS011;54989;53.398;6.564;2022-10-31T04:08:36;2.08;;;1.90;;
60454;SDS011;54989;53.398;6.564;2022-10-31T04:11:12;2.03;;;1.92;;
60454;SDS011;54989;53.398;6.564;2022-10-31T04:13:52;1.90;;;1.80;;
60454;SDS011;54989;53.398;6.564;2022-10-31T04:16:21;1.70;;;1.60;;
60454;SDS011;54989;53.398;6.564;2022-10-31T04:18:50;1.90;;;1.80;;
60454;SDS011;54989;53.398;6.564;2022-10-31T04:21:18;2.42;;;1.80;;
60454;SDS011;54989;53.398;6.564;2022-10-31T04:23:47;1.85;;;1.75;;
60454;SDS011;54989;53.398;6.564;2022-10-31T04:26:23;1.83;;;1.73;;
60454;SDS011;54989;53.398;6.564;2022-10-31T04:28:51;1.85;;;1.75;;
60454;SDS011;54989;53.398;6.564;2022-10-31T04:31:18;1.90;;;1.80;;
60454;SDS011;54989;53.398;6.564;2022-10-31T04:33:48;1.60;;;1.50;;
60454;SDS011;54989;53.398;6.564;2022-10-31T04:36:16;2.03;;;1.77;;
60454;SDS011;54989;53.398;6.564;2022-10-31T04:38:44;2.05;;;1.77;;
60454;SDS011;54989;53.398;6.564;2022-10-31T04:41:25;1.77;;;1.67;;
60454;SDS011;54989;53.398;6.564;2022-10-31T04:43:57;1.95;;;1.77;;
60454;SDS011;54989;53.398;6.564;2022-10-31T04:46:26;1.92;;;1.83;;
60454;SDS011;54989;53.398;6.564;2022-10-31T04:48:55;2.38;;;1.80;;
60454;SDS011;54989;53.398;6.564;2022-10-31T04:51:23;1.98;;;1.70;;
60454;SDS011;54989;53.398;6.564;2022-10-31T04:53:51;1.70;;;1.60;;
60454;SDS011;54989;53.398;6.564;2022-10-31T04:56:37;1.73;;;1.63;;
60454;SDS011;54989;53.398;6.564;2022-10-31T04:59:10;2.00;;;1.80;;
60454;SDS011;54989;53.398;6.564;2022-10-31T05:01:51;2.60;;;1.98;;
60454;SDS011;54989;53.398;6.564;2022-10-31T05:04:41;2.00;;;1.90;;
60454;SDS011;54989;53.398;6.564;2022-10-31T05:07:09;1.88;;;1.77;;
60454;SDS011;54989;53.398;6.564;2022-10-31T05:09:36;1.95;;;1.70;;
60454;SDS011;54989;53.398;6.564;2022-10-31T05:12:04;2.80;;;2.10;;
60454;SDS011;54989;53.398;6.564;2022-10-31T05:14:50;1.67;;;1.58;;
60454;SDS011;54989;53.398;6.564;2022-10-31T05:17:36;2.42;;;2.00;;
60454;SDS011;54989;53.398;6.564;2022-10-31T05:20:24;2.15;;;2.03;;
60454;SDS011;54989;53.398;6.564;2022-10-31T05:23:16;1.80;;;1.60;;
60454;SDS011;54989;53.398;6.564;2022-10-31T05:25:44;1.80;;;1.70;;
60454;SDS011;54989;53.398;6.564;2022-10-31T05:28:11;1.98;;;1.77;;
60454;SDS011;54989;53.398;6.564;2022-10-31T05:30:39;2.10;;;1.90;;
60454;SDS011;54989;53.398;6.564;2022-10-31T05:33:10;2.13;;;1.90;;
60454;SDS011;54989;53.398;6.564;2022-10-31T05:35:57;1.88;;;1.77;;
60454;SDS011;54989;53.398;6.564;2022-10-31T05:38:43;1.80;;;1.70;;
60454;SDS011;54989;53.398;6.564;2022-10-31T05:41:19;1.88;;;1.77;;
60454;SDS011;54989;53.398;6.564;2022-10-31T05:43:46;1.70;;;1.60;;
60454;SDS011;54989;53.398;6.564;2022-10-31T05:46:17;1.65;;;1.55;;
60454;SDS011;54989;53.398;6.564;2022-10-31T05:49:03;1.60;;;1.50;;
60454;SDS011;54989;53.398;6.564;2022-10-31T05:51:49;2.35;;;1.80;;
60454;SDS011;54989;53.398;6.564;2022-10-31T05:54:19;1.63;;;1.52;;
60454;SDS011;54989;53.398;6.564;2022-10-31T05:56:47;2.03;;;1.92;;
60454;SDS011;54989;53.398;6.564;2022-10-31T05:59:15;1.50;;;1.40;;
60454;SDS011;54989;53.398;6.564;2022-10-31T06:01:43;1.70;;;1.60;;
60454;SDS011;54989;53.398;6.564;2022-10-31T06:04:35;1.67;;;1.50;;
60454;SDS011;54989;53.398;6.564;2022-10-31T06:07:03;1.60;;;1.50;;
60454;SDS011;54989;53.398;6.564;2022-10-31T06:09:31;1.80;;;1.70;;
60454;SDS011;54989;53.398;6.564;2022-10-31T06:11:58;1.90;;;1.80;;
60454;SDS011;54989;53.398;6.564;2022-10-31T06:14:45;1.65;;;1.55;;
60454;SDS011;54989;53.398;6.564;2022-10-31T06:17:12;1.75;;;1.60;;
60454;SDS011;54989;53.398;6.564;2022-10-31T06:19:43;1.90;;;1.50;;
60454;SDS011;54989;53.398;6.564;2022-10-31T06:22:14;1.88;;;1.77;;
60454;SDS011;54989;53.398;6.564;2022-10-31T06:24:42;1.73;;;1.58;;
60454;SDS011;54989;53.398;6.564;2022-10-31T06:27:36;1.63;;;1.52;;
60454;SDS011;54989;53.398;6.564;2022-10-31T06:30:10;2.15;;;2.05;;
60454;SDS011;54989;53.398;6.564;2022-10-31T06:32:37;1.63;;;1.52;;
60454;SDS011;54989;53.398;6.564;2022-10-31T06:35:05;1.70;;;1.60;;
60454;SDS011;54989;53.398;6.564;2022-10-31T06:37:34;2.00;;;1.40;;
60454;SDS011;54989;53.398;6.564;2022-10-31T06:40:14;1.85;;;1.70;;
60454;SDS011;54989;53.398;6.564;2022-10-31T06:43:01;1.58;;;1.48;;
60454;SDS011;54989;53.398;6.564;2022-10-31T06:45:30;1.88;;;1.75;;
60454;SDS011;54989;53.398;6.564;2022-10-31T06:48:18;1.80;;;1.70;;
60454;SDS011;54989;53.398;6.564;2022-10-31T06:51:24;2.95;;;1.58;;
60454;SDS011;54989;53.398;6.564;2022-10-31T06:53:52;2.05;;;1.83;;
60454;SDS011;54989;53.398;6.564;2022-10-31T06:56:24;1.60;;;1.50;;
60454;SDS011;54989;53.398;6.564;2022-10-31T06:58:54;1.77;;;1.67;;
60454;SDS011;54989;53.398;6.564;2022-10-31T07:01:45;1.60;;;1.50;;
60454;SDS011;54989;53.398;6.564;2022-10-31T07:04:13;1.92;;;1.75;;
60454;SDS011;54989;53.398;6.564;2022-10-31T07:06:41;1.77;;;1.67;;
60454;SDS011;54989;53.398;6.564;2022-10-31T07:09:16;1.48;;;1.38;;
60454;SDS011;54989;53.398;6.564;2022-10-31T07:11:43;1.70;;;1.50;;
60454;SDS011;54989;53.398;6.564;2022-10-31T07:14:11;2.03;;;1.40;;
60454;SDS011;54989;53.398;6.564;2022-10-31T07:16:39;1.52;;;1.42;;
60454;SDS011;54989;53.398;6.564;2022-10-31T07:19:06;1.65;;;1.27;;
60454;SDS011;54989;53.398;6.564;2022-10-31T07:21:34;2.25;;;1.70;;
60454;SDS011;54989;53.398;6.564;2022-10-31T07:24:01;1.60;;;1.50;;
60454;SDS011;54989;53.398;6.564;2022-10-31T07:26:48;1.55;;;1.45;;
60454;SDS011;54989;53.398;6.564;2022-10-31T07:29:16;1.67;;;1.58;;
60454;SDS011;54989;53.398;6.564;2022-10-31T07:31:45;1.83;;;1.67;;
60454;SDS011;54989;53.398;6.564;2022-10-31T07:34:20;2.17;;;1.75;;
60454;SDS011;54989;53.398;6.564;2022-10-31T07:37:06;1.83;;;1.30;;
60454;SDS011;54989;53.398;6.564;2022-10-31T07:39:34;1.60;;;1.50;;
60454;SDS011;54989;53.398;6.564;2022-10-31T07:42:01;1.35;;;1.25;;
60454;SDS011;54989;53.398;6.564;2022-10-31T07:44:30;1.70;;;1.60;;
60454;SDS011;54989;53.398;6.564;2022-10-31T07:47:16;1.48;;;1.38;;
60454;SDS011;54989;53.398;6.564;2022-10-31T07:50:02;1.48;;;1.38;;
60454;SDS011;54989;53.398;6.564;2022-10-31T07:52:59;1.40;;;1.30;;
60454;SDS011;54989;53.398;6.564;2022-10-31T07:55:48;1.50;;;1.40;;
60454;SDS011;54989;53.398;6.564;2022-10-31T07:58:17;1.85;;;1.50;;
60454;SDS011;54989;53.398;6.564;2022-10-31T08:00:46;1.50;;;1.40;;
60454;SDS011;54989;53.398;6.564;2022-10-31T08:03:22;1.45;;;1.35;;
60454;SDS011;54989;53.398;6.564;2022-10-31T08:06:08;1.30;;;1.20;;
60454;SDS011;54989;53.398;6.564;2022-10-31T08:08:42;1.40;;;1.30;;
60454;SDS011;54989;53.398;6.564;2022-10-31T08:11:09;1.40;;;1.30;;
60454;SDS011;54989;53.398;6.564;2022-10-31T08:13:37;1.40;;;1.30;;
60454;SDS011;54989;53.398;6.564;2022-10-31T08:16:06;2.15;;;1.40;;
60454;SDS011;54989;53.398;6.564;2022-10-31T08:18:39;1.38;;;1.27;;
60454;SDS011;54989;53.398;6.564;2022-10-31T08:21:10;1.13;;;1.13;;
60454;SDS011;54989;53.398;6.564;2022-10-31T08:23:37;1.50;;;1.40;;
60454;SDS011;54989;53.398;6.564;2022-10-31T08:26:06;1.15;;;1.08;;
60454;SDS011;54989;53.398;6.564;2022-10-31T08:28:34;1.38;;;1.27;;
60454;SDS011;54989;53.398;6.564;2022-10-31T08:31:02;1.10;;;1.10;;
60454;SDS011;54989;53.398;6.564;2022-10-31T08:33:38;1.50;;;1.40;;
60454;SDS011;54989;53.398;6.564;2022-10-31T08:36:18;1.50;;;1.40;;
60454;SDS011;54989;53.398;6.564;2022-10-31T08:38:47;1.98;;;1.30;;
60454;SDS011;54989;53.398;6.564;2022-10-31T08:41:16;1.40;;;1.30;;
60454;SDS011;54989;53.398;6.564;2022-10-31T08:43:43;1.67;;;1.58;;
60454;SDS011;54989;53.398;6.564;2022-10-31T08:46:11;2.13;;;1.40;;
60454;SDS011;54989;53.398;6.564;2022-10-31T08:48:41;1.30;;;1.20;;
60454;SDS011;54989;53.398;6.564;2022-10-31T08:51:09;1.45;;;1.33;;
60454;SDS011;54989;53.398;6.564;2022-10-31T08:53:37;2.33;;;1.98;;
60454;SDS011;54989;53.398;6.564;2022-10-31T08:56:40;2.45;;;2.25;;
60454;SDS011;54989;53.398;6.564;2022-10-31T08:59:22;2.53;;;2.33;;
60454;SDS011;54989;53.398;6.564;2022-10-31T09:02:12;2.70;;;2.28;;
60454;SDS011;54989;53.398;6.564;2022-10-31T09:04:40;2.42;;;2.22;;
60454;SDS011;54989;53.398;6.564;2022-10-31T09:07:08;2.97;;;2.33;;
60454;SDS011;54989;53.398;6.564;2022-10-31T09:09:52;3.42;;;2.47;;
60454;SDS011;54989;53.398;6.564;2022-10-31T09:12:19;3.20;;;2.55;;
60454;SDS011;54989;53.398;6.564;2022-10-31T09:14:59;2.20;;;2.00;;
60454;SDS011;54989;53.398;6.564;2022-10-31T09:17:37;3.28;;;2.20;;
60454;SDS011;54989;53.398;6.564;2022-10-31T09:20:17;2.30;;;2.10;;
60454;SDS011;54989;53.398;6.564;2022-10-31T09:22:45;3.40;;;2.70;;
60454;SDS011;54989;53.398;6.564;2022-10-31T09:25:13;2.45;;;2.20;;
60454;SDS011;54989;53.398;6.564;2022-10-31T09:27:44;3.17;;;2.10;;
60454;SDS011;54989;53.398;6.564;2022-10-31T09:30:12;2.15;;;1.95;;
60454;SDS011;54989;53.398;6.564;2022-10-31T09:32:42;2.78;;;1.92;;
60454;SDS011;54989;53.398;6.564;2022-10-31T09:35:10;2.88;;;2.30;;
60454;SDS011;54989;53.398;6.564;2022-10-31T09:37:42;2.42;;;2.00;;
60454;SDS011;54989;53.398;6.564;2022-10-31T09:40:10;2.33;;;1.80;;
60454;SDS011;54989;53.398;6.564;2022-10-31T09:42:47;1.92;;;1.80;;
60454;SDS011;54989;53.398;6.564;2022-10-31T09:56:49;1.85;;;1.70;;
60454;SDS011;54989;53.398;6.564;2022-10-31T09:59:20;2.67;;;1.92;;
60454;SDS011;54989;53.398;6.564;2022-10-31T10:05:17;2.10;;;1.90;;
60454;SDS011;54989;53.398;6.564;2022-10-31T10:19:29;1.83;;;1.73;;
60454;SDS011;54989;53.398;6.564;2022-10-31T10:27:48;1.90;;;1.80;;
60454;SDS011;54989;53.398;6.564;2022-10-31T10:33:03;1.80;;;1.70;;
60454;SDS011;54989;53.398;6.564;2022-10-31T10:36:04;2.00;;;1.70;;
60454;SDS011;54989;53.398;6.564;2022-10-31T10:38:37;2.10;;;1.98;;
60454;SDS011;54989;53.398;6.564;2022-10-31T10:41:17;2.42;;;1.77;;
60454;SDS011;54989;53.398;6.564;2022-10-31T10:43:48;1.87;;;1.77;;
60454;SDS011;54989;53.398;6.564;2022-10-31T10:54:46;2.20;;;1.67;;
60454;SDS011;54989;53.398;6.564;2022-10-31T10:57:36;1.98;;;1.80;;
60454;SDS011;54989;53.398;6.564;2022-10-31T11:02:57;2.35;;;1.60;;
60454;SDS011;54989;53.398;6.564;2022-10-31T11:05:29;2.17;;;1.60;;
60454;SDS011;54989;53.398;6.564;2022-10-31T11:08:31;2.00;;;1.80;;
60454;SDS011;54989;53.398;6.564;2022-10-31T11:11:38;1.73;;;1.63;;
60454;SDS011;54989;53.398;6.564;2022-10-31T11:14:02;1.65;;;1.55;;
60454;SDS011;54989;53.398;6.564;2022-10-31T11:16:33;1.95;;;1.52;;
60454;SDS011;54989;53.398;6.564;2022-10-31T11:21:45;1.75;;;1.65;;
60454;SDS011;54989;53.398;6.564;2022-10-31T11:26:49;1.75;;;1.65;;
60454;SDS011;54989;53.398;6.564;2022-10-31T11:29:22;1.60;;;1.50;;
60454;SDS011;54989;53.398;6.564;2022-10-31T11:31:52;3.22;;;1.60;;
60454;SDS011;54989;53.398;6.564;2022-10-31T11:34:41;2.05;;;1.60;;
60454;SDS011;54989;53.398;6.564;2022-10-31T11:37:22;1.95;;;1.67;;
60454;SDS011;54989;53.398;6.564;2022-10-31T11:39:55;2.20;;;1.60;;
60454;SDS011;54989;53.398;6.564;2022-10-31T11:42:26;4.10;;;1.67;;
60454;SDS011;54989;53.398;6.564;2022-10-31T11:44:57;1.75;;;1.60;;
60454;SDS011;54989;53.398;6.564;2022-10-31T11:47:34;1.95;;;1.55;;
60454;SDS011;54989;53.398;6.564;2022-10-31T11:50:09;2.15;;;1.80;;
60454;SDS011;54989;53.398;6.564;2022-10-31T11:52:39;1.65;;;1.30;;
60454;SDS011;54989;53.398;6.564;2022-10-31T11:57:55;1.58;;;1.48;;
60454;SDS011;54989;53.398;6.564;2022-10-31T12:00:24;2.25;;;1.50;;
60454;SDS011;54989;53.398;6.564;2022-10-31T12:06:07;2.35;;;1.70;;
60454;SDS011;54989;53.398;6.564;2022-10-31T12:08:38;1.77;;;1.52;;
60454;SDS011;54989;53.398;6.564;2022-10-31T12:17:12;2.25;;;1.65;;
60454;SDS011;54989;53.398;6.564;2022-10-31T12:25:43;2.38;;;1.50;;
60454;SDS011;54989;53.398;6.564;2022-10-31T12:33:46;1.60;;;1.50;;
60454;SDS011;54989;53.398;6.564;2022-10-31T12:37:00;1.85;;;1.40;;
60454;SDS011;54989;53.398;6.564;2022-10-31T12:50:59;1.60;;;1.50;;
60454;SDS011;54989;53.398;6.564;2022-10-31T12:59:33;1.38;;;1.30;;
60454;SDS011;54989;53.398;6.564;2022-10-31T13:07:41;1.40;;;1.23;;
60454;SDS011;54989;53.398;6.564;2022-10-31T13:10:21;1.20;;;1.10;;
60454;SDS011;54989;53.398;6.564;2022-10-31T13:13:00;1.80;;;1.35;;
60454;SDS011;54989;53.398;6.564;2022-10-31T13:15:34;1.65;;;1.40;;
60454;SDS011;54989;53.398;6.564;2022-10-31T13:18:25;2.08;;;1.30;;
60454;SDS011;54989;53.398;6.564;2022-10-31T13:21:01;1.88;;;1.45;;
60454;SDS011;54989;53.398;6.564;2022-10-31T13:23:35;1.90;;;1.70;;
60454;SDS011;54989;53.398;6.564;2022-10-31T13:29:15;2.38;;;1.35;;
60454;SDS011;54989;53.398;6.564;2022-10-31T13:31:59;1.95;;;1.20;;
60454;SDS011;54989;53.398;6.564;2022-10-31T13:34:34;1.27;;;1.17;;
60454;SDS011;54989;53.398;6.564;2022-10-31T13:37:30;1.55;;;1.40;;
60454;SDS011;54989;53.398;6.564;2022-10-31T13:45:47;1.92;;;1.65;;
60454;SDS011;54989;53.398;6.564;2022-10-31T13:50:58;1.60;;;1.40;;
60454;SDS011;54989;53.398;6.564;2022-10-31T13:53:36;2.58;;;1.60;;
60454;SDS011;54989;53.398;6.564;2022-10-31T13:58:35;3.28;;;1.52;;
60454;SDS011;54989;53.398;6.564;2022-10-31T14:01:21;2.90;;;1.52;;
60454;SDS011;54989;53.398;6.564;2022-10-31T14:03:56;1.92;;;1.42;;
60454;SDS011;54989;53.398;6.564;2022-10-31T14:06:40;1.83;;;1.40;;
60454;SDS011;54989;53.398;6.564;2022-10-31T14:12:10;1.98;;;1.40;;
60454;SDS011;54989;53.398;6.564;2022-10-31T14:15:00;2.35;;;1.67;;
60454;SDS011;54989;53.398;6.564;2022-10-31T14:17:54;3.03;;;1.50;;
60454;SDS011;54989;53.398;6.564;2022-10-31T14:20:36;1.92;;;1.40;;
60454;SDS011;54989;53.398;6.564;2022-10-31T14:28:48;3.47;;;1.70;;
60454;SDS011;54989;53.398;6.564;2022-10-31T14:34:24;2.28;;;1.70;;
60454;SDS011;54989;53.398;6.564;2022-10-31T14:36:58;3.05;;;1.67;;
60454;SDS011;54989;53.398;6.564;2022-10-31T14:53:08;1.50;;;1.40;;
60454;SDS011;54989;53.398;6.564;2022-10-31T14:55:43;1.65;;;1.20;;
60454;SDS011;54989;53.398;6.564;2022-10-31T14:58:28;1.30;;;1.20;;
60454;SDS011;54989;53.398;6.564;2022-10-31T15:01:05;2.00;;;1.60;;
60454;SDS011;54989;53.398;6.564;2022-10-31T15:03:34;2.05;;;1.40;;
60454;SDS011;54989;53.398;6.564;2022-10-31T15:06:19;1.80;;;1.35;;
60454;SDS011;54989;53.398;6.564;2022-10-31T15:08:50;3.03;;;1.45;;
60454;SDS011;54989;53.398;6.564;2022-10-31T15:11:21;2.35;;;1.50;;
60454;SDS011;54989;53.398;6.564;2022-10-31T15:13:55;2.05;;;1.58;;
60454;SDS011;54989;53.398;6.564;2022-10-31T15:16:36;1.40;;;1.10;;
60454;SDS011;54989;53.398;6.564;2022-10-31T15:19:07;1.65;;;1.35;;
60454;SDS011;54989;53.398;6.564;2022-10-31T15:21:40;1.40;;;1.25;;
60454;SDS011;54989;53.398;6.564;2022-10-31T15:24:14;1.52;;;1.30;;
60454;SDS011;54989;53.398;6.564;2022-10-31T15:26:45;1.50;;;1.40;;
60454;SDS011;54989;53.398;6.564;2022-10-31T15:29:22;1.25;;;1.15;;
60454;SDS011;54989;53.398;6.564;2022-10-31T15:31:55;2.25;;;1.00;;
60454;SDS011;54989;53.398;6.564;2022-10-31T15:37:03;1.47;;;1.37;;
60454;SDS011;54989;53.398;6.564;2022-10-31T15:39:31;1.58;;;1.20;;
60454;SDS011;54989;53.398;6.564;2022-10-31T15:42:00;2.75;;;1.30;;
60454;SDS011;54989;53.398;6.564;2022-10-31T15:44:28;1.60;;;1.50;;
60454;SDS011;54989;53.398;6.564;2022-10-31T15:47:04;2.60;;;1.10;;
60454;SDS011;54989;53.398;6.564;2022-10-31T15:50:00;2.45;;;1.20;;
60454;SDS011;54989;53.398;6.564;2022-10-31T15:57:42;1.80;;;1.30;;
60454;SDS011;54989;53.398;6.564;2022-10-31T16:00:26;2.83;;;1.67;;
60454;SDS011;54989;53.398;6.564;2022-10-31T16:03:03;2.00;;;1.40;;
60454;SDS011;54989;53.398;6.564;2022-10-31T16:05:37;2.25;;;1.30;;
60454;SDS011;54989;53.398;6.564;2022-10-31T16:08:21;1.77;;;1.20;;
60454;SDS011;54989;53.398;6.564;2022-10-31T16:13:28;2.25;;;1.60;;
60454;SDS011;54989;53.398;6.564;2022-10-31T16:16:00;1.80;;;1.52;;
60454;SDS011;54989;53.398;6.564;2022-10-31T16:18:50;2.70;;;1.48;;
60454;SDS011;54989;53.398;6.564;2022-10-31T16:21:23;2.50;;;1.48;;
60454;SDS011;54989;53.398;6.564;2022-10-31T16:23:56;2.13;;;1.35;;
60454;SDS011;54989;53.398;6.564;2022-10-31T16:26:31;3.15;;;1.73;;
60454;SDS011;54989;53.398;6.564;2022-10-31T16:29:00;1.83;;;1.67;;
60454;SDS011;54989;53.398;6.564;2022-10-31T16:31:38;2.10;;;1.90;;
60454;SDS011;54989;53.398;6.564;2022-10-31T16:34:21;3.50;;;1.70;;
60454;SDS011;54989;53.398;6.564;2022-10-31T16:36:52;1.88;;;1.63;;
60454;SDS011;54989;53.398;6.564;2022-10-31T16:39:20;2.03;;;1.67;;
60454;SDS011;54989;53.398;6.564;2022-10-31T16:41:48;1.80;;;1.70;;
60454;SDS011;54989;53.398;6.564;2022-10-31T16:44:25;1.55;;;1.40;;
60454;SDS011;54989;53.398;6.564;2022-10-31T16:47:12;2.10;;;1.80;;
60454;SDS011;54989;53.398;6.564;2022-10-31T16:49:41;2.15;;;1.75;;
60454;SDS011;54989;53.398;6.564;2022-10-31T16:52:10;2.22;;;2.03;;
60454;SDS011;54989;53.398;6.564;2022-10-31T16:54:37;1.83;;;1.65;;
60454;SDS011;54989;53.398;6.564;2022-10-31T16:57:05;2.20;;;2.00;;
60454;SDS011;54989;53.398;6.564;2022-10-31T16:59:37;1.67;;;1.58;;
60454;SDS011;54989;53.398;6.564;2022-10-31T17:02:06;2.95;;;2.28;;
60454;SDS011;54989;53.398;6.564;2022-10-31T17:04:42;1.92;;;1.77;;
60454;SDS011;54989;53.398;6.564;2022-10-31T17:07:10;2.35;;;1.80;;
60454;SDS011;54989;53.398;6.564;2022-10-31T17:09:37;1.52;;;1.42;;
60454;SDS011;54989;53.398;6.564;2022-10-31T17:12:05;1.73;;;1.63;;
60454;SDS011;54989;53.398;6.564;2022-10-31T17:14:40;1.75;;;1.50;;
60454;SDS011;54989;53.398;6.564;2022-10-31T17:17:08;1.55;;;1.40;;
60454;SDS011;54989;53.398;6.564;2022-10-31T17:19:35;2.10;;;1.90;;
60454;SDS011;54989;53.398;6.564;2022-10-31T17:22:03;2.40;;;1.50;;
60454;SDS011;54989;53.398;6.564;2022-10-31T17:24:30;2.30;;;1.63;;
60454;SDS011;54989;53.398;6.564;2022-10-31T17:26:57;1.73;;;1.63;;
60454;SDS011;54989;53.398;6.564;2022-10-31T17:29:25;2.80;;;1.95;;
60454;SDS011;54989;53.398;6.564;2022-10-31T17:31:52;2.83;;;1.92;;
60454;SDS011;54989;53.398;6.564;2022-10-31T17:34:20;2.45;;;2.13;;
60454;SDS011;54989;53.398;6.564;2022-10-31T17:36:51;2.05;;;1.92;;
60454;SDS011;54989;53.398;6.564;2022-10-31T17:39:19;2.35;;;1.60;;
60454;SDS011;54989;53.398;6.564;2022-10-31T17:41:49;2.00;;;1.90;;
60454;SDS011;54989;53.398;6.564;2022-10-31T17:44:17;2.58;;;2.35;;
60454;SDS011;54989;53.398;6.564;2022-10-31T17:46:45;2.30;;;2.10;;
60454;SDS011;54989;53.398;6.564;2022-10-31T17:49:13;1.83;;;1.73;;
60454;SDS011;54989;53.398;6.564;2022-10-31T17:51:40;2.40;;;2.20;;
60454;SDS011;54989;53.398;6.564;2022-10-31T17:54:08;1.85;;;1.70;;
60454;SDS011;54989;53.398;6.564;2022-10-31T17:56:36;2.35;;;2.15;;
60454;SDS011;54989;53.398;6.564;2022-10-31T17:59:04;2.70;;;2.22;;
60454;SDS011;54989;53.398;6.564;2022-10-31T18:01:36;1.90;;;1.80;;
60454;SDS011;54989;53.398;6.564;2022-10-31T18:04:04;1.92;;;1.83;;
60454;SDS011;54989;53.398;6.564;2022-10-31T18:06:32;2.17;;;1.98;;
60454;SDS011;54989;53.398;6.564;2022-10-31T18:09:01;1.88;;;1.77;;
60454;SDS011;54989;53.398;6.564;2022-10-31T18:11:32;2.10;;;1.90;;
60454;SDS011;54989;53.398;6.564;2022-10-31T18:13:59;2.00;;;1.80;;
60454;SDS011;54989;53.398;6.564;2022-10-31T18:16:27;2.00;;;1.90;;
60454;SDS011;54989;53.398;6.564;2022-10-31T18:18:55;3.45;;;2.40;;
60454;SDS011;54989;53.398;6.564;2022-10-31T18:21:31;2.47;;;2.28;;
60454;SDS011;54989;53.398;6.564;2022-10-31T18:23:59;2.65;;;2.45;;
60454;SDS011;54989;53.398;6.564;2022-10-31T18:26:27;2.30;;;2.10;;
60454;SDS011;54989;53.398;6.564;2022-10-31T18:28:55;2.65;;;2.20;;
60454;SDS011;54989;53.398;6.564;2022-10-31T18:31:23;2.83;;;2.63;;
60454;SDS011;54989;53.398;6.564;2022-10-31T18:33:51;3.22;;;2.45;;